createdAt,value
2023-03-14T01:23:26.099Z,2.32
2023-03-14T01:24:26.109Z,2.39
2023-03-14T01:25:26.083Z,2.24
2023-03-14T01:26:26.117Z,2.29
2023-03-14T01:27:26.143Z,2.29
2023-03-14T01:28:26.110Z,2.24
2023-03-14T01:29:26.119Z,2.27
2023-03-14T01:30:26.127Z,2.27
2023-03-14T01:31:26.163Z,2.32
2023-03-14T01:32:26.128Z,2.33
2023-03-14T01:33:26.113Z,2.19
2023-03-14T01:34:26.104Z,2.20
2023-03-14T01:35:26.089Z,2.30
2023-03-14T01:36:26.096Z,2.21
2023-03-14T01:37:26.087Z,2.25
2023-03-14T01:38:26.098Z,2.17
2023-03-14T01:39:26.117Z,2.22
2023-03-14T01:40:26.135Z,2.21
2023-03-14T01:41:26.166Z,2.23
2023-03-14T01:42:26.147Z,2.28
2023-03-14T01:43:26.201Z,2.17
2023-03-14T01:44:26.179Z,2.17
2023-03-14T01:45:26.289Z,2.16
2023-03-14T01:46:26.287Z,2.21
2023-03-14T01:47:26.261Z,2.19
2023-03-14T01:48:26.290Z,2.20
2023-03-14T01:49:26.300Z,2.19
2023-03-14T01:50:26.330Z,2.18
2023-03-14T01:51:26.359Z,2.26
2023-03-14T01:52:26.360Z,2.14
2023-03-14T01:53:26.371Z,2.19
2023-03-14T01:54:26.414Z,2.15
2023-03-14T01:55:26.413Z,2.15
2023-03-14T01:56:26.395Z,2.13
2023-03-14T01:57:26.414Z,2.10
2023-03-14T01:58:26.442Z,2.13
2023-03-14T01:59:26.470Z,2.11
2023-03-14T02:00:26.504Z,2.13
2023-03-14T02:01:26.595Z,2.08
2023-03-14T02:02:26.525Z,2.10
2023-03-14T02:03:26.579Z,2.19
2023-03-14T02:04:26.563Z,2.12
2023-03-14T02:05:26.563Z,2.09
2023-03-14T02:07:26.599Z,2.12
2023-03-14T02:08:26.613Z,2.07
2023-03-14T02:09:26.638Z,2.08
2023-03-14T02:10:26.643Z,2.13
2023-03-14T02:11:26.634Z,2.09
2023-03-14T02:12:26.637Z,2.15
2023-03-14T02:13:26.652Z,2.13
2023-03-14T02:14:26.660Z,2.06
2023-03-14T02:15:26.751Z,2.08
2023-03-14T02:16:26.690Z,2.09
2023-03-14T02:17:26.664Z,2.07
2023-03-14T02:18:26.726Z,2.07
2023-03-14T02:19:26.647Z,2.12
2023-03-14T02:20:26.664Z,2.08
2023-03-14T02:21:26.654Z,2.09
2023-03-14T02:22:26.666Z,2.02
2023-03-14T02:23:26.680Z,2.00
2023-03-14T02:24:26.702Z,2.00
2023-03-14T02:25:26.697Z,2.10
2023-03-14T02:26:26.702Z,2.05
2023-03-14T02:27:26.712Z,2.02
2023-03-14T02:28:26.738Z,2.02
2023-03-14T02:29:26.768Z,2.00
2023-03-14T02:31:26.831Z,2.02
2023-03-14T02:32:26.841Z,2.06
2023-03-14T02:33:26.857Z,2.01
2023-03-14T05:13:30.558Z,1.50
2023-03-14T05:14:30.621Z,1.51
2023-03-14T05:15:30.684Z,1.51
2023-03-14T05:16:30.783Z,1.50
2023-03-14T05:17:30.786Z,1.51
2023-03-14T05:18:30.848Z,1.50
2023-03-14T05:19:30.918Z,1.47
2023-03-14T05:20:30.958Z,1.48
2023-03-14T05:21:31.016Z,1.50
2023-03-14T05:22:31.079Z,1.48
2023-03-14T05:23:31.133Z,1.46
2023-03-14T05:24:31.185Z,1.48
2023-03-14T05:25:32.681Z,1.45
2023-03-14T05:26:31.294Z,1.45
2023-03-14T05:27:31.340Z,1.46
2023-03-14T05:28:31.407Z,1.47
2023-03-14T05:29:31.467Z,1.47
2023-03-14T05:30:31.520Z,1.47
2023-03-14T05:31:31.663Z,1.43
2023-03-14T05:32:31.668Z,1.48
2023-03-14T05:33:31.692Z,1.45
2023-03-14T05:34:31.749Z,1.45
2023-03-14T05:35:31.843Z,1.45
2023-03-14T05:36:31.875Z,1.44
2023-03-14T05:37:31.937Z,1.41
2023-03-14T05:38:31.975Z,1.45
2023-03-14T05:39:32.028Z,1.44
2023-03-14T05:40:32.087Z,1.47
2023-03-14T05:41:32.140Z,1.43
2023-03-14T05:42:32.191Z,1.41
2023-03-14T05:43:32.243Z,1.41
2023-03-14T05:44:32.313Z,1.44
2023-03-14T05:45:34.500Z,1.42
2023-03-14T05:46:32.342Z,1.42
2023-03-14T05:47:32.338Z,1.44
2023-03-14T05:48:32.322Z,1.44
2023-03-14T05:49:32.307Z,1.41
2023-03-14T05:50:32.294Z,1.43
2023-03-14T05:51:32.286Z,1.39
2023-03-14T05:52:32.274Z,1.43
2023-03-14T05:53:32.269Z,1.41
2023-03-14T05:54:32.258Z,1.40
2023-03-14T05:55:32.263Z,1.40
2023-03-14T05:56:32.228Z,1.40
2023-03-14T05:57:32.228Z,1.39
2023-03-14T05:58:32.222Z,1.40
2023-03-14T05:59:32.200Z,1.39
2023-03-14T06:00:32.183Z,1.39
2023-03-14T06:01:32.180Z,1.40
2023-03-14T06:02:32.198Z,1.38
2023-03-14T06:03:32.204Z,1.37
2023-03-14T06:04:32.141Z,1.40
2023-03-14T06:05:32.209Z,1.36
2023-03-14T06:06:32.125Z,1.38
2023-03-14T06:07:32.113Z,1.36
2023-03-14T06:08:32.116Z,1.39
2023-03-14T06:09:32.097Z,1.38
2023-03-14T06:10:32.087Z,1.38
2023-03-14T06:11:32.087Z,1.36
2023-03-14T06:12:32.081Z,1.35
2023-03-14T06:13:32.068Z,1.36
2023-03-14T06:14:32.065Z,1.37
2023-03-14T06:15:32.045Z,1.36
2023-03-14T06:16:32.072Z,1.36
2023-03-14T06:17:32.032Z,1.36
2023-03-14T06:18:32.024Z,1.33
2023-03-14T06:19:32.014Z,1.36
2023-03-14T06:20:32.018Z,1.36
2023-03-14T06:21:31.996Z,1.32
2023-03-14T06:22:31.986Z,1.32
2023-03-14T06:23:31.960Z,1.28
2023-03-14T06:24:31.976Z,1.25
2023-03-14T06:25:31.956Z,1.22
2023-03-14T06:26:32.006Z,1.24
2023-03-14T06:27:32.051Z,1.22
2023-03-14T06:28:32.120Z,1.24
2023-03-14T06:29:32.155Z,1.21
2023-03-14T06:30:32.256Z,1.26
2023-03-14T06:31:32.348Z,1.31
2023-03-14T06:32:32.378Z,1.55
2023-03-14T06:33:32.349Z,1.49
2023-03-14T06:34:32.385Z,1.56
2023-03-14T06:36:32.436Z,1.67
2023-03-14T06:37:32.461Z,1.71
2023-03-14T06:38:32.500Z,1.79
2023-03-14T06:39:32.526Z,1.93
2023-03-14T06:40:32.533Z,2.11
2023-03-14T06:41:32.566Z,2.38
2023-03-14T06:42:32.610Z,2.49
2023-03-14T06:43:32.574Z,2.63
2023-03-14T06:44:32.601Z,2.93
2023-03-14T06:45:32.605Z,3.00
2023-03-14T06:46:32.677Z,3.28
2023-03-14T06:47:32.618Z,3.56
2023-03-14T06:48:32.617Z,4.03
2023-03-14T06:49:32.615Z,4.34
2023-03-14T06:50:32.609Z,4.68
2023-03-14T06:51:32.618Z,4.86
2023-03-14T06:52:32.718Z,5.19
2023-03-14T06:53:32.590Z,5.76
2023-03-14T06:54:32.561Z,5.79
2023-03-14T06:55:32.563Z,5.95
2023-03-14T06:56:32.512Z,4.38
2023-03-14T06:57:32.481Z,2.88
2023-03-14T06:58:32.477Z,2.36
2023-03-14T06:59:32.460Z,2.07
2023-03-14T07:00:32.491Z,2.49
2023-03-14T07:01:33.403Z,3.16
2023-03-14T07:02:42.324Z,4.00
2023-03-14T07:03:33.457Z,4.02
2023-03-14T07:04:32.530Z,4.06
2023-03-14T07:05:32.454Z,3.22
2023-03-14T07:06:32.438Z,2.42
2023-03-14T07:07:32.451Z,3.33
2023-03-14T07:08:32.442Z,3.75
2023-03-14T07:09:32.431Z,3.79
2023-03-14T07:10:32.414Z,3.81
2023-03-14T07:11:32.419Z,4.09
2023-03-14T07:12:32.471Z,4.24
2023-03-14T07:13:32.494Z,4.52
2023-03-14T07:14:32.512Z,4.61
2023-03-14T07:15:32.585Z,4.94
2023-03-14T07:16:32.543Z,5.19
2023-03-14T07:17:32.554Z,5.22
2023-03-14T07:18:32.546Z,5.60
2023-03-14T07:19:32.525Z,5.62
2023-03-14T07:20:32.495Z,5.72
2023-03-14T07:21:32.477Z,6.03
2023-03-14T07:22:32.465Z,6.52
2023-03-14T07:23:32.444Z,7.50
2023-03-14T07:24:32.417Z,7.77
2023-03-14T07:25:32.402Z,8.06
2023-03-14T07:26:32.406Z,8.53
2023-03-14T07:27:32.381Z,4.92
2023-03-14T07:28:32.350Z,2.73
2023-03-14T07:29:32.360Z,1.83
2023-03-14T07:30:32.364Z,1.68
2023-03-14T07:31:32.402Z,2.09
2023-03-14T07:32:32.397Z,2.48
2023-03-14T07:33:32.390Z,2.49
2023-03-14T07:34:32.390Z,2.60
2023-03-14T07:35:33.382Z,2.86
2023-03-14T07:36:32.388Z,3.39
2023-03-14T07:37:32.422Z,4.29
2023-03-14T07:38:32.387Z,4.70
2023-03-14T07:39:32.390Z,4.84
2023-03-14T07:40:32.359Z,4.91
2023-03-14T07:41:32.356Z,5.22
2023-03-14T07:42:32.342Z,5.34
2023-03-14T07:43:32.334Z,5.45
2023-03-14T07:44:33.289Z,5.70
2023-03-14T07:45:32.308Z,6.06
2023-03-14T07:46:32.476Z,6.38
2023-03-14T07:47:32.316Z,6.83
2023-03-14T07:48:32.325Z,7.12
2023-03-14T07:49:32.318Z,7.40
2023-03-14T07:50:32.314Z,7.42
2023-03-14T07:51:32.330Z,7.52
2023-03-14T07:52:32.275Z,7.74
2023-03-14T07:53:32.266Z,8.47
2023-03-14T07:54:32.245Z,9.54
2023-03-14T07:55:32.231Z,10.51
2023-03-14T07:56:32.207Z,10.56
2023-03-14T07:57:32.190Z,11.17
2023-03-14T07:58:32.157Z,11.60
2023-03-14T07:59:32.138Z,11.79
2023-03-14T08:00:32.117Z,12.16
2023-03-14T08:01:32.833Z,12.47
2023-03-14T08:02:32.175Z,13.09
2023-03-14T08:03:32.087Z,13.43
2023-03-14T08:04:32.046Z,14.46
2023-03-14T08:05:32.027Z,15.35
2023-03-14T08:06:32.871Z,16.06
2023-03-14T08:07:31.964Z,16.98
2023-03-14T08:08:31.949Z,17.31
2023-03-14T08:09:31.926Z,17.78
2023-03-14T08:10:31.903Z,18.11
2023-03-14T08:11:31.886Z,19.36
2023-03-14T08:12:31.860Z,20.29
2023-03-14T08:13:31.840Z,20.75
2023-03-14T08:14:31.804Z,21.01
2023-03-14T08:15:31.770Z,21.48
2023-03-14T08:16:31.844Z,22.34
2023-03-14T08:17:31.723Z,23.89
2023-03-14T08:18:31.714Z,23.88
2023-03-14T08:19:31.680Z,23.41
2023-03-14T08:20:31.643Z,20.42
2023-03-14T08:21:31.627Z,21.79
2023-03-14T08:22:32.378Z,21.65
2023-03-14T08:23:31.601Z,21.48
2023-03-14T08:24:31.598Z,21.29
2023-03-14T08:25:31.703Z,20.68
2023-03-14T08:26:31.576Z,20.41
2023-03-14T08:27:31.583Z,19.66
2023-03-14T08:28:31.571Z,20.27
2023-03-14T08:29:31.541Z,19.46
2023-03-14T08:30:31.559Z,18.96
2023-03-14T08:31:31.585Z,18.80
2023-03-14T08:32:31.523Z,18.52
2023-03-14T08:33:31.489Z,18.41
2023-03-14T08:34:31.476Z,17.68
2023-03-14T08:35:31.466Z,17.79
2023-03-14T08:36:31.486Z,17.25
2023-03-14T08:37:31.455Z,17.33
2023-03-14T08:38:31.454Z,16.78
2023-03-14T08:39:31.440Z,16.51
2023-03-14T08:40:31.439Z,16.50
2023-03-14T08:41:31.429Z,16.40
2023-03-14T08:42:31.428Z,16.09
2023-03-14T08:43:31.421Z,15.87
2023-03-14T08:44:31.449Z,15.60
2023-03-14T08:45:31.408Z,15.28
2023-03-14T08:46:31.434Z,15.29
2023-03-14T08:47:31.444Z,15.31
2023-03-14T08:48:31.482Z,15.40
2023-03-14T08:49:31.417Z,14.93
2023-03-14T08:50:31.402Z,15.23
2023-03-14T08:51:31.399Z,15.14
2023-03-14T08:52:31.424Z,14.93
2023-03-14T08:53:31.408Z,14.98
2023-03-14T08:54:31.401Z,14.70
2023-03-14T08:55:31.392Z,14.56
2023-03-14T08:56:31.407Z,14.47
2023-03-14T08:57:31.395Z,14.14
2023-03-14T08:58:31.402Z,13.75
2023-03-14T08:59:31.416Z,14.01
2023-03-14T09:00:31.411Z,14.06
2023-03-14T09:01:31.449Z,13.82
2023-03-14T09:02:31.416Z,13.45
2023-03-14T09:03:31.419Z,13.50
2023-03-14T09:04:31.481Z,13.42
2023-03-14T09:05:31.447Z,13.40
2023-03-14T09:06:31.447Z,13.20
2023-03-14T09:07:31.446Z,12.94
2023-03-14T09:08:31.441Z,12.95
2023-03-14T09:09:31.457Z,12.64
2023-03-14T09:10:31.455Z,12.54
2023-03-14T09:11:31.448Z,12.25
2023-03-14T09:12:31.444Z,10.20
2023-03-14T09:13:31.448Z,6.25
2023-03-14T09:14:31.488Z,3.62
2023-03-14T09:15:31.507Z,2.37
2023-03-14T09:16:31.560Z,2.19
2023-03-14T09:17:31.537Z,1.73
2023-03-14T09:18:31.557Z,1.19
2023-03-14T09:19:31.575Z,1.01
2023-03-14T09:20:31.623Z,0.77
2023-03-14T09:21:32.317Z,0.63
2023-03-14T09:22:31.732Z,0.59
2023-03-14T09:23:31.787Z,0.51
2023-03-14T09:24:31.858Z,0.50
2023-03-14T09:25:31.924Z,0.72
2023-03-14T09:26:31.994Z,0.79
2023-03-14T09:27:32.071Z,0.75
2023-03-14T09:28:32.137Z,0.64
2023-03-14T09:29:32.831Z,0.53
2023-03-14T09:30:32.167Z,0.51
2023-03-14T09:31:32.217Z,0.50
2023-03-14T09:32:32.191Z,0.51
2023-03-14T09:33:32.193Z,0.57
2023-03-14T09:34:32.198Z,0.60
2023-03-14T09:35:32.206Z,0.57
2023-03-14T09:36:32.180Z,0.50
2023-03-14T09:37:32.167Z,0.54
2023-03-14T09:38:32.177Z,0.60
2023-03-14T09:39:32.168Z,0.56
2023-03-14T09:40:32.193Z,0.65
2023-03-14T09:41:32.274Z,0.68
2023-03-14T09:42:32.307Z,0.65
2023-03-14T09:43:32.364Z,0.67
2023-03-14T09:44:32.411Z,0.83
2023-03-14T09:45:32.473Z,0.76
2023-03-14T09:46:32.587Z,0.77
2023-03-14T09:47:32.540Z,0.97
2023-03-14T09:48:32.592Z,0.83
2023-03-14T09:49:32.626Z,0.65
2023-03-14T09:50:32.661Z,0.55
2023-03-14T09:51:32.699Z,0.53
2023-03-14T09:52:32.735Z,0.50
2023-03-14T09:53:32.787Z,0.76
2023-03-14T09:54:32.829Z,0.91
2023-03-14T09:55:34.294Z,0.77
2023-03-14T09:56:33.024Z,0.56
2023-03-14T09:57:33.053Z,0.61
2023-03-14T09:58:33.086Z,0.75
2023-03-14T09:59:33.819Z,0.68
2023-03-14T10:00:33.188Z,0.83
2023-03-14T10:01:33.402Z,0.81
2023-03-14T10:02:33.241Z,0.61
2023-03-14T10:03:33.279Z,0.47
2023-03-14T10:04:33.363Z,0.47
2023-03-14T10:05:33.373Z,0.63
2023-03-14T10:06:33.412Z,0.60
2023-03-14T10:07:33.461Z,0.55
2023-03-14T10:08:33.513Z,0.67
2023-03-14T10:09:33.559Z,0.83
2023-03-14T10:10:33.642Z,0.98
2023-03-14T10:11:33.695Z,1.04
2023-03-14T10:12:33.709Z,1.19
2023-03-14T10:13:33.734Z,0.93
2023-03-14T10:14:33.763Z,0.88
2023-03-14T10:15:33.813Z,1.06
2023-03-14T10:16:33.891Z,1.02
2023-03-14T10:17:33.855Z,1.25
2023-03-14T10:18:33.883Z,1.30
2023-03-14T10:19:33.903Z,1.37
2023-03-14T10:20:33.930Z,1.39
2023-03-14T10:21:33.932Z,1.38
2023-03-14T10:22:33.965Z,1.44
2023-03-14T10:23:33.948Z,1.47
2023-03-14T10:24:33.973Z,1.52
2023-03-14T10:25:33.965Z,1.50
2023-03-14T10:26:33.956Z,1.61
2023-03-14T10:27:33.993Z,1.64
2023-03-14T10:28:34.836Z,1.70
2023-03-14T10:29:33.973Z,1.73
2023-03-14T10:30:34.039Z,1.76
2023-03-14T10:31:33.969Z,1.80
2023-03-14T10:32:34.008Z,1.79
2023-03-14T10:33:33.976Z,1.84
2023-03-14T10:34:34.053Z,1.88
2023-03-14T10:35:34.028Z,1.89
2023-03-14T10:36:33.991Z,1.88
2023-03-14T10:37:33.963Z,1.93
2023-03-14T10:38:34.939Z,1.92
2023-03-14T10:39:33.967Z,1.94
2023-03-14T10:40:33.984Z,1.99
2023-03-14T10:41:33.959Z,2.00
2023-03-14T10:42:33.966Z,1.99
2023-03-14T10:43:33.967Z,2.07
2023-03-14T10:44:33.975Z,2.06
2023-03-14T10:45:33.980Z,2.05
2023-03-14T10:46:34.009Z,2.03
2023-03-14T10:47:33.969Z,2.05
2023-03-14T10:48:33.972Z,2.10
2023-03-14T10:49:34.029Z,2.07
2023-03-14T10:50:33.980Z,2.11
2023-03-14T10:51:33.979Z,2.11
2023-03-14T10:52:57.373Z,2.13
2023-03-14T10:53:34.955Z,2.13
2023-03-14T10:54:33.927Z,2.14
2023-03-14T10:55:33.902Z,2.16
2023-03-14T10:56:33.880Z,2.17
2023-03-14T10:57:33.871Z,2.19
2023-03-14T10:58:33.884Z,2.16
2023-03-14T10:59:33.835Z,2.19
2023-03-14T11:00:33.813Z,2.22
2023-03-14T11:01:33.838Z,2.21
2023-03-14T11:02:33.767Z,2.18
2023-03-14T11:03:33.737Z,2.23
2023-03-14T11:04:33.796Z,2.22
2023-03-14T11:05:33.682Z,2.24
2023-03-14T11:06:33.803Z,2.21
2023-03-14T11:07:33.641Z,2.22
2023-03-14T11:08:33.656Z,2.20
2023-03-14T11:09:33.608Z,2.24
2023-03-14T11:10:33.571Z,2.20
2023-03-14T11:11:33.550Z,2.23
2023-03-14T11:12:33.530Z,2.19
2023-03-14T11:13:34.443Z,2.24
2023-03-14T11:14:33.490Z,2.23
2023-03-14T11:15:33.494Z,2.28
2023-03-14T11:16:33.461Z,2.22
2023-03-14T11:17:33.459Z,2.28
2023-03-14T11:18:33.432Z,2.27
2023-03-14T11:19:34.492Z,2.23
2023-03-14T11:20:33.435Z,2.22
2023-03-14T11:21:33.445Z,2.21
2023-03-14T11:22:33.441Z,2.25
2023-03-14T11:23:33.447Z,2.24
2023-03-14T11:24:33.449Z,2.20
2023-03-14T11:25:33.463Z,2.22
2023-03-14T11:26:33.461Z,2.26
2023-03-14T11:27:33.463Z,2.25
2023-03-14T11:28:33.471Z,2.27
2023-03-14T11:29:33.474Z,2.22
2023-03-14T11:30:33.474Z,2.20
2023-03-14T11:31:33.559Z,2.23
2023-03-14T11:32:33.507Z,2.18
2023-03-14T11:33:33.486Z,2.26
2023-03-14T11:34:33.494Z,2.23
2023-03-14T11:35:33.525Z,2.24
2023-03-14T11:36:33.966Z,2.27
2023-03-14T11:37:33.522Z,2.22
2023-03-14T11:38:33.519Z,2.22
2023-03-14T11:39:33.546Z,2.18
2023-03-14T11:40:33.529Z,2.13
2023-03-14T11:41:33.543Z,2.14
2023-03-14T11:42:33.548Z,2.21
2023-03-14T11:43:33.553Z,2.22
2023-03-14T11:44:33.565Z,2.17
2023-03-14T11:45:33.570Z,2.16
2023-03-14T11:46:33.626Z,2.21
2023-03-14T11:47:33.587Z,2.09
2023-03-14T11:48:33.596Z,2.11
2023-03-14T11:49:33.593Z,2.11
2023-03-14T11:50:33.593Z,2.13
2023-03-14T11:51:34.115Z,2.17
2023-03-14T11:52:33.612Z,2.13
2023-03-14T11:53:33.593Z,2.15
2023-03-14T11:54:33.941Z,2.13
2023-03-14T11:55:33.630Z,2.13
2023-03-14T11:56:33.630Z,2.13
2023-03-14T11:57:33.908Z,2.12
2023-03-14T11:58:33.620Z,2.12
2023-03-14T11:59:33.625Z,2.08
2023-03-14T12:00:33.789Z,2.08
2023-03-14T12:01:33.662Z,2.10
2023-03-14T12:02:33.627Z,2.06
2023-03-14T12:03:33.859Z,2.08
2023-03-14T12:04:33.630Z,2.10
2023-03-14T12:05:33.654Z,2.10
2023-03-14T12:06:33.661Z,2.07
2023-03-14T12:07:33.633Z,2.15
2023-03-14T12:08:33.627Z,2.07
2023-03-14T12:09:33.636Z,2.05
2023-03-14T12:10:33.621Z,2.07
2023-03-14T12:11:33.626Z,2.12
2023-03-14T12:12:33.626Z,2.11
2023-03-14T12:13:33.621Z,2.06
2023-03-14T12:14:33.653Z,2.10
2023-03-14T12:15:33.636Z,2.09
2023-03-14T12:16:33.691Z,2.05
2023-03-14T12:17:33.654Z,2.08
2023-03-14T12:18:33.660Z,2.10
2023-03-14T12:19:33.663Z,2.13
2023-03-14T12:20:33.672Z,2.08
2023-03-14T12:21:33.668Z,2.15
2023-03-14T12:22:33.675Z,2.15
2023-03-14T12:23:33.682Z,2.11
2023-03-14T12:24:33.690Z,2.12
2023-03-14T12:25:33.705Z,2.07
2023-03-14T12:26:33.708Z,2.08
2023-03-14T12:27:33.713Z,2.13
2023-03-14T12:28:33.724Z,2.08
2023-03-14T12:29:33.734Z,2.08
2023-03-14T12:30:33.757Z,2.11
2023-03-14T12:31:33.787Z,2.12
2023-03-14T12:32:33.804Z,2.10
2023-03-14T12:33:33.825Z,2.13
2023-03-14T12:34:33.786Z,2.12
2023-03-14T12:35:33.813Z,2.11
2023-03-14T12:36:33.791Z,2.11
2023-03-14T12:37:33.799Z,2.37
2023-03-14T12:38:33.807Z,2.45
2023-03-14T12:39:33.814Z,2.55
2023-03-14T12:40:33.966Z,2.66
2023-03-14T12:41:33.837Z,2.64
2023-03-14T12:42:44.581Z,2.78
2023-03-14T12:43:35.012Z,2.79
2023-03-14T12:44:33.822Z,2.80
2023-03-14T12:45:33.848Z,2.88
2023-03-14T12:46:33.841Z,2.92
2023-03-14T12:47:33.782Z,3.22
2023-03-14T12:48:33.765Z,3.53
2023-03-14T12:49:33.762Z,3.58
2023-03-14T12:50:33.755Z,3.58
2023-03-14T12:51:33.739Z,3.63
2023-03-14T12:52:33.732Z,3.55
2023-03-14T12:53:33.713Z,3.68
2023-03-14T12:54:33.918Z,3.63
2023-03-14T12:55:33.687Z,3.63
2023-03-14T12:56:33.678Z,3.62
2023-03-14T12:57:33.681Z,3.60
2023-03-14T12:58:33.671Z,3.59
2023-03-14T12:59:33.633Z,3.60
2023-03-14T13:00:33.614Z,3.48
2023-03-14T13:01:33.661Z,3.51
2023-03-14T13:02:33.569Z,3.42
2023-03-14T13:03:33.568Z,3.45
2023-03-14T13:04:39.704Z,3.44
2023-03-14T13:05:33.521Z,3.45
2023-03-14T13:06:33.510Z,3.45
2023-03-14T13:07:33.503Z,3.42
2023-03-14T13:08:33.545Z,3.40
2023-03-14T13:09:33.473Z,3.32
2023-03-14T13:10:38.222Z,3.39
2023-03-14T13:11:34.954Z,3.39
2023-03-14T13:12:33.432Z,3.31
2023-03-14T13:14:33.426Z,3.26
2023-03-14T13:15:33.388Z,3.24
2023-03-14T13:16:33.401Z,3.27
2023-03-14T13:17:36.921Z,3.22
2023-03-14T13:18:33.324Z,3.22
2023-03-14T13:19:33.306Z,3.23
2023-03-14T13:20:33.309Z,3.22
2023-03-14T13:21:33.281Z,3.16
2023-03-14T13:22:33.253Z,3.21
2023-03-14T13:23:33.235Z,3.19
2023-03-14T13:24:33.229Z,3.18
2023-03-14T13:25:33.199Z,3.15
2023-03-14T13:26:33.194Z,3.20
2023-03-14T13:27:33.177Z,3.15
2023-03-14T13:28:33.154Z,3.14
2023-03-14T13:29:33.142Z,3.18
2023-03-14T13:30:33.241Z,3.10
2023-03-14T13:31:33.123Z,3.10
2023-03-14T13:32:33.273Z,3.10
2023-03-14T13:33:35.294Z,3.12
2023-03-14T13:34:33.353Z,3.11
2023-03-14T13:35:33.081Z,3.13
2023-03-14T13:36:33.003Z,3.11
2023-03-14T13:37:32.990Z,3.04
2023-03-14T13:38:33.990Z,3.04
2023-03-14T13:39:32.973Z,3.05
2023-03-14T13:40:32.967Z,3.08
2023-03-14T13:41:32.918Z,3.10
2023-03-14T13:42:32.906Z,3.14
2023-03-14T14:12:32.781Z,3.02
2023-03-14T14:23:32.903Z,3.12
2023-03-14T14:31:33.070Z,3.00
2023-03-14T14:32:33.043Z,3.06
2023-03-14T14:33:33.023Z,3.14
2023-03-14T14:35:33.123Z,3.06
2023-03-14T14:36:33.074Z,2.98
2023-03-14T14:41:33.132Z,2.94
2023-03-14T14:42:33.132Z,3.01
2023-03-14T14:43:33.149Z,2.96
2023-03-14T14:44:33.919Z,3.00
2023-03-14T14:45:33.178Z,2.95
2023-03-14T14:46:33.228Z,2.90
2023-03-14T14:47:33.217Z,2.98
2023-03-14T14:48:33.226Z,2.87
2023-03-14T14:49:33.288Z,2.85
2023-03-14T14:51:33.213Z,2.88
2023-03-14T14:52:33.197Z,2.89
2023-03-14T14:53:33.194Z,2.90
2023-03-14T14:54:33.168Z,2.92
2023-03-14T14:55:33.154Z,2.94
2023-03-14T14:56:33.139Z,2.96
2023-03-14T14:57:34.131Z,2.97
2023-03-14T14:58:33.109Z,2.97
2023-03-14T14:59:33.072Z,2.94
2023-03-14T15:00:34.424Z,2.99
2023-03-14T15:01:33.126Z,3.00
2023-03-14T15:02:33.076Z,2.97
2023-03-14T15:03:33.011Z,2.92
2023-03-14T15:04:33.031Z,2.86
2023-03-14T15:05:32.960Z,2.91
2023-03-14T15:06:33.021Z,2.89
2023-03-14T15:07:32.920Z,2.83
2023-03-14T15:08:32.893Z,2.79
2023-03-14T15:09:32.884Z,2.83
2023-03-14T15:10:32.960Z,2.79
2023-03-14T15:11:32.855Z,2.79
2023-03-14T15:12:32.848Z,2.77
2023-03-14T15:13:32.828Z,2.78
2023-03-14T15:14:32.803Z,2.81
2023-03-14T15:15:32.790Z,2.76
2023-03-14T15:16:32.822Z,2.79
2023-03-14T15:17:32.774Z,2.83
2023-03-14T15:18:32.898Z,2.80
2023-03-14T15:19:33.515Z,2.84
2023-03-14T15:20:32.813Z,2.77
2023-03-14T15:21:32.827Z,2.79
2023-03-14T15:22:32.841Z,2.84
2023-03-14T15:23:32.855Z,2.77
2023-03-14T15:24:32.884Z,2.82
2023-03-14T15:25:53.323Z,2.81
2023-03-14T15:26:33.868Z,2.81
2023-03-14T15:27:32.837Z,2.80
2023-03-14T15:28:32.820Z,2.82
2023-03-14T15:29:32.811Z,2.76
2023-03-14T15:30:32.798Z,2.77
2023-03-14T15:31:32.791Z,2.74
2023-03-14T15:32:32.800Z,2.82
2023-03-14T15:33:32.754Z,2.67
2023-03-14T15:34:32.714Z,2.75
2023-03-14T15:35:32.706Z,2.75
2023-03-14T15:36:32.693Z,2.71
2023-03-14T15:37:32.665Z,2.72
2023-03-14T15:38:32.651Z,2.80
2023-03-14T15:39:32.649Z,2.74
2023-03-14T15:40:32.628Z,2.73
2023-03-14T15:41:32.624Z,2.63
2023-03-14T15:42:32.605Z,2.63
2023-03-14T15:43:32.647Z,2.67
2023-03-14T15:44:32.559Z,2.66
2023-03-14T15:45:32.605Z,2.58
2023-03-14T15:46:33.525Z,2.58
2023-03-14T15:47:32.592Z,2.55
2023-03-14T15:48:32.604Z,2.55
2023-03-14T15:49:32.617Z,2.55
2023-03-14T15:50:32.640Z,2.50
2023-03-14T15:51:32.651Z,2.51
2023-03-14T15:52:32.671Z,2.48
2023-03-14T15:53:32.668Z,2.44
2023-03-14T15:54:32.709Z,2.44
2023-03-14T15:55:32.711Z,2.44
2023-03-14T15:56:32.711Z,2.39
2023-03-14T15:57:32.725Z,2.39
2023-03-14T15:58:32.741Z,2.33
2023-03-14T15:59:32.769Z,2.37
2023-03-14T16:00:32.783Z,2.30
2023-03-14T16:01:32.840Z,2.28
2023-03-14T16:02:32.823Z,2.33
2023-03-14T16:03:32.847Z,2.27
2023-03-14T16:04:32.886Z,2.35
2023-03-14T16:05:32.890Z,2.33
2023-03-14T16:06:32.915Z,2.32
2023-03-14T16:07:33.586Z,2.24
2023-03-14T16:08:32.956Z,2.29
2023-03-14T16:09:32.990Z,2.30
2023-03-14T16:10:33.005Z,2.32
2023-03-14T16:11:33.068Z,2.32
2023-03-14T16:12:33.083Z,2.23
2023-03-14T16:13:33.069Z,2.26
2023-03-14T16:14:33.100Z,2.26
2023-03-14T16:15:33.126Z,2.25
2023-03-14T16:16:33.210Z,2.29
2023-03-14T16:17:33.158Z,2.28
2023-03-14T16:18:33.185Z,2.27
2023-03-14T16:19:33.215Z,2.27
2023-03-14T16:20:45.566Z,2.21
2023-03-14T16:21:34.221Z,2.22
2023-03-14T16:22:33.200Z,2.23
2023-03-14T16:23:33.183Z,2.24
2023-03-14T16:24:33.177Z,2.24
2023-03-14T16:25:33.162Z,2.28
2023-03-14T16:26:33.243Z,2.26
2023-03-14T16:27:33.141Z,2.27
2023-03-14T16:28:33.126Z,2.26
2023-03-14T16:29:33.121Z,2.22
2023-03-14T16:30:33.108Z,2.24
2023-03-14T16:31:33.554Z,2.24
2023-03-14T16:32:34.168Z,2.20
2023-03-14T16:33:33.075Z,2.24
2023-03-14T16:34:33.051Z,2.24
2023-03-14T16:35:33.029Z,2.26
2023-03-14T16:36:33.018Z,2.24
2023-03-14T16:37:33.042Z,2.23
2023-03-14T16:38:34.058Z,2.24
2023-03-14T16:39:33.100Z,2.18
2023-03-14T16:40:33.118Z,2.16
2023-03-14T16:41:33.190Z,2.24
2023-03-14T16:42:33.307Z,2.12
2023-03-14T16:43:33.212Z,2.11
2023-03-14T16:44:33.243Z,2.10
2023-03-14T16:45:33.282Z,2.11
2023-03-14T16:46:33.374Z,2.13
2023-03-14T16:47:33.328Z,2.15
2023-03-14T16:48:33.371Z,2.13
2023-03-14T16:49:33.385Z,2.15
2023-03-14T16:50:33.417Z,2.16
2023-03-14T16:51:33.466Z,2.12
2023-03-14T16:52:33.491Z,2.07
2023-03-14T16:53:33.533Z,2.12
2023-03-14T16:54:33.565Z,2.11
2023-03-14T16:55:33.582Z,2.07
2023-03-14T16:56:33.612Z,2.07
2023-03-14T16:57:33.644Z,2.04
2023-03-14T16:58:33.680Z,2.05
2023-03-14T16:59:33.712Z,2.08
2023-03-14T17:00:33.761Z,2.08
2023-03-14T17:01:33.808Z,2.04
2023-03-14T17:02:33.844Z,2.06
2023-03-14T17:03:33.881Z,2.04
2023-03-14T17:04:33.915Z,2.03
2023-03-14T19:40:40.630Z,1.87
2023-03-14T19:41:40.665Z,1.85
2023-03-14T19:42:40.708Z,1.88
2023-03-14T19:43:40.762Z,1.86
2023-03-14T19:44:40.801Z,1.91
2023-03-14T20:04:41.753Z,1.80
2023-03-14T20:05:41.805Z,1.78
2023-03-14T20:06:41.829Z,1.82
2023-03-14T20:07:41.867Z,1.81
2023-03-14T20:08:41.912Z,1.80
2023-03-14T20:09:41.950Z,1.77
2023-03-14T20:10:42.018Z,1.78
2023-03-14T20:11:42.047Z,1.82
2023-03-14T20:12:42.101Z,1.80
2023-03-14T20:13:42.168Z,1.79
2023-03-14T20:14:42.198Z,1.76
2023-03-14T20:15:42.255Z,1.77
2023-03-14T20:16:42.347Z,1.80
2023-03-14T20:17:42.336Z,1.74
2023-03-14T20:18:42.388Z,1.77
2023-03-14T20:19:42.428Z,1.79
2023-03-14T20:20:42.498Z,1.76
2023-03-14T20:21:42.544Z,1.80
2023-03-14T20:22:42.597Z,1.76
2023-03-14T20:23:42.640Z,1.77
2023-03-14T20:24:42.679Z,1.75
2023-03-14T22:58:51.574Z,1.48
2023-03-14T22:59:50.706Z,1.45
2023-03-14T23:00:50.790Z,1.48
2023-03-14T23:01:50.823Z,1.45
2023-03-14T23:02:50.910Z,1.46
2023-03-14T23:03:50.923Z,1.48
2023-03-14T23:04:50.973Z,1.48
2023-03-14T23:05:51.048Z,1.46
2023-03-14T23:06:51.086Z,1.43
2023-03-14T23:31:52.304Z,1.40
2023-03-14T23:32:52.319Z,1.41
2023-03-14T23:33:52.325Z,1.41
2023-03-14T23:34:52.344Z,1.42
2023-03-14T23:35:52.404Z,1.40
2023-03-14T23:52:53.301Z,1.38
2023-03-14T23:53:53.353Z,1.38
2023-03-14T23:54:53.410Z,1.40
2023-03-14T23:55:53.455Z,1.36
2023-03-14T23:56:53.470Z,1.38
2023-03-14T23:57:53.538Z,1.37
2023-03-14T23:58:53.552Z,1.36
2023-03-14T23:59:53.606Z,1.35
